createdAt,value
2022-10-16T00:01:29.816Z,105.28
2022-10-16T00:03:59.115Z,98.50
2022-10-16T00:06:27.871Z,102.03
2022-10-16T00:08:56.062Z,110.38
2022-10-16T00:11:26.442Z,96.90
2022-10-16T00:13:57.704Z,99.05
2022-10-16T00:16:25.885Z,103.50
2022-10-16T00:18:53.499Z,97.82
2022-10-16T00:21:24.424Z,103.57
2022-10-16T00:24:10.886Z,93.10
2022-10-16T00:26:39.594Z,95.15
2022-10-16T00:29:07.923Z,84.82
2022-10-16T00:31:35.376Z,86.95
2022-10-16T00:34:02.637Z,88.47
2022-10-16T00:36:30.218Z,88.60
2022-10-16T00:41:33.742Z,94.97
2022-10-16T00:44:03.390Z,88.85
2022-10-16T00:46:42.787Z,81.88
2022-10-16T00:49:16.774Z,81.15
2022-10-16T00:51:53.594Z,87.80
2022-10-16T00:54:24.686Z,70.35
2022-10-16T00:56:53.960Z,68.90
2022-10-16T00:59:26.127Z,62.85
2022-10-16T01:01:54.473Z,60.30
2022-10-16T01:04:22.371Z,61.65
2022-10-16T01:07:00.271Z,56.33
2022-10-16T01:09:47.719Z,57.60
2022-10-16T01:12:38.530Z,50.58
2022-10-16T01:15:30.679Z,57.97
2022-10-16T01:18:07.538Z,54.22
2022-10-16T01:20:48.634Z,53.65
2022-10-16T01:23:43.312Z,60.57
2022-10-16T01:26:32.949Z,56.00
2022-10-16T01:29:00.393Z,50.53
2022-10-16T01:31:32.852Z,54.17
2022-10-16T01:34:37.177Z,47.28
2022-10-16T01:37:10.738Z,54.28
2022-10-16T01:39:41.037Z,45.28
2022-10-16T01:42:14.359Z,44.78
2022-10-16T01:44:42.324Z,43.13
2022-10-16T01:47:11.803Z,44.90
2022-10-16T01:49:42.620Z,47.03
2022-10-16T01:52:18.463Z,35.85
2022-10-16T01:54:49.902Z,34.47
2022-10-16T01:57:18.631Z,31.33
2022-10-16T01:59:51.001Z,30.40
2022-10-16T02:02:21.456Z,31.35
2022-10-16T02:04:54.600Z,29.98
2022-10-16T02:07:21.808Z,35.60
2022-10-16T02:09:49.413Z,31.27
2022-10-16T02:12:25.474Z,33.97
2022-10-16T02:14:54.121Z,30.98
2022-10-16T02:17:22.168Z,30.13
2022-10-16T02:19:52.161Z,33.45
2022-10-16T02:22:41.877Z,33.25
2022-10-16T02:25:12.159Z,38.85
2022-10-16T02:28:14.073Z,39.20
2022-10-16T02:33:14.731Z,34.63
2022-10-16T02:35:44.820Z,37.88
2022-10-16T02:38:13.586Z,46.70
2022-10-16T02:40:41.879Z,40.35
2022-10-16T02:43:10.104Z,44.40
2022-10-16T02:45:37.702Z,45.90
2022-10-16T02:48:05.368Z,47.00
2022-10-16T02:50:32.942Z,45.40
2022-10-16T02:53:00.087Z,41.90
2022-10-16T02:55:28.851Z,42.35
2022-10-16T02:57:56.153Z,39.97
2022-10-16T03:00:23.518Z,44.05
2022-10-16T03:02:50.992Z,39.33
2022-10-16T03:05:18.859Z,40.42
2022-10-16T03:07:46.039Z,42.08
2022-10-16T03:10:13.555Z,43.42
2022-10-16T03:12:40.802Z,43.05
2022-10-16T03:15:08.687Z,42.47
2022-10-16T03:17:35.943Z,44.22
2022-10-16T03:20:04.312Z,42.28
2022-10-16T03:22:31.776Z,47.90
2022-10-16T03:24:59.180Z,44.65
2022-10-16T03:27:26.507Z,46.58
2022-10-16T03:29:54.108Z,39.85
2022-10-16T03:32:21.422Z,43.40
2022-10-16T03:34:48.800Z,40.08
2022-10-16T03:37:16.006Z,40.08
2022-10-16T03:39:43.439Z,41.38
2022-10-16T03:42:10.578Z,41.53
2022-10-16T03:44:37.921Z,37.78
2022-10-16T03:47:05.279Z,42.05
2022-10-16T03:49:32.692Z,40.42
2022-10-16T03:51:59.874Z,39.35
2022-10-16T03:54:27.307Z,39.53
2022-10-16T03:56:54.434Z,40.75
2022-10-16T03:59:21.900Z,42.60
2022-10-16T04:01:49.048Z,43.15
2022-10-16T04:04:16.413Z,42.13
2022-10-16T04:06:43.568Z,42.95
2022-10-16T04:09:10.901Z,44.13
2022-10-16T04:11:38.269Z,43.85
2022-10-16T04:14:05.888Z,42.90
2022-10-16T04:16:33.055Z,49.28
2022-10-16T04:19:00.422Z,48.75
2022-10-16T04:21:27.576Z,44.05
2022-10-16T04:23:54.970Z,41.42
2022-10-16T04:26:22.096Z,40.22
2022-10-16T04:28:49.516Z,41.42
2022-10-16T04:31:16.770Z,36.35
2022-10-16T04:33:44.998Z,41.60
2022-10-16T04:36:12.204Z,42.00
2022-10-16T04:38:40.637Z,49.38
2022-10-16T04:41:08.660Z,41.83
2022-10-16T04:43:36.350Z,42.80
2022-10-16T04:46:05.686Z,49.95
2022-10-16T04:48:33.274Z,47.35
2022-10-16T04:51:00.982Z,49.10
2022-10-16T04:53:28.430Z,42.88
2022-10-16T04:55:55.611Z,52.60
2022-10-16T04:58:24.267Z,48.15
2022-10-16T05:00:51.454Z,45.42
2022-10-16T05:03:18.961Z,44.17
2022-10-16T05:05:47.267Z,59.15
2022-10-16T05:08:15.902Z,51.22
2022-10-16T05:10:44.703Z,51.88
2022-10-16T05:13:12.770Z,49.15
2022-10-16T05:15:40.133Z,49.03
2022-10-16T05:18:07.474Z,54.78
2022-10-16T05:20:34.662Z,49.00
2022-10-16T05:23:02.208Z,51.38
2022-10-16T05:25:29.839Z,47.88
2022-10-16T05:27:57.204Z,50.80
2022-10-16T05:30:24.614Z,47.03
2022-10-16T05:32:52.408Z,49.38
2022-10-16T05:35:20.469Z,51.13
2022-10-16T05:37:48.178Z,46.63
2022-10-16T05:40:15.922Z,48.97
2022-10-16T05:42:43.308Z,50.72
2022-10-16T05:45:12.847Z,51.10
2022-10-16T05:47:40.371Z,49.92
2022-10-16T05:50:07.900Z,52.80
2022-10-16T05:52:35.404Z,50.30
2022-10-16T05:55:02.570Z,49.03
2022-10-16T05:57:30.037Z,49.47
2022-10-16T05:59:57.274Z,46.90
2022-10-16T06:02:24.619Z,55.35
2022-10-16T06:04:54.699Z,51.45
2022-10-16T06:07:22.814Z,45.72
2022-10-16T06:09:51.235Z,49.72
2022-10-16T06:12:19.297Z,48.90
2022-10-16T06:14:50.295Z,52.25
2022-10-16T06:17:17.679Z,46.15
2022-10-16T06:19:44.884Z,46.45
2022-10-16T06:22:12.250Z,44.83
2022-10-16T06:24:39.458Z,43.85
2022-10-16T06:27:07.583Z,45.17
2022-10-16T06:29:34.827Z,42.80
2022-10-16T06:32:02.318Z,42.28
2022-10-16T06:34:29.469Z,46.92
2022-10-16T06:36:56.901Z,45.38
2022-10-16T06:39:24.085Z,45.65
2022-10-16T06:41:51.571Z,42.60
2022-10-16T06:44:18.815Z,48.72
2022-10-16T06:46:46.221Z,46.25
2022-10-16T06:49:13.367Z,45.83
2022-10-16T06:51:43.322Z,50.33
2022-10-16T06:54:10.949Z,47.47
2022-10-16T06:56:38.748Z,47.03
2022-10-16T06:59:06.021Z,45.90
2022-10-16T07:01:34.308Z,51.45
2022-10-16T07:04:02.238Z,55.38
2022-10-16T07:06:32.745Z,57.95
2022-10-16T07:09:03.047Z,54.50
2022-10-16T07:11:30.639Z,55.22
2022-10-16T07:13:57.800Z,51.70
2022-10-16T07:16:28.561Z,51.97
2022-10-16T07:19:00.762Z,52.00
2022-10-16T07:21:31.383Z,55.72
2022-10-16T07:24:05.159Z,59.78
2022-10-16T07:26:36.065Z,57.45
2022-10-16T07:29:04.707Z,58.97
2022-10-16T07:31:32.761Z,59.50
2022-10-16T07:34:01.485Z,59.05
2022-10-16T07:36:29.385Z,60.50
2022-10-16T07:38:59.000Z,61.72
2022-10-16T07:41:28.838Z,57.85
2022-10-16T07:43:57.534Z,57.38
2022-10-16T07:46:24.931Z,59.97
2022-10-16T07:48:52.144Z,62.85
2022-10-16T07:51:22.353Z,69.05
2022-10-16T07:53:50.388Z,57.25
2022-10-16T07:56:18.794Z,53.67
2022-10-16T07:58:46.575Z,59.83
2022-10-16T08:01:16.312Z,55.13
2022-10-16T08:03:48.310Z,47.35
2022-10-16T08:06:16.412Z,48.33
2022-10-16T08:08:43.690Z,47.08
2022-10-16T08:11:11.265Z,47.70
2022-10-16T08:13:38.694Z,47.55
2022-10-16T08:16:09.341Z,47.42
2022-10-16T08:18:37.498Z,45.38
2022-10-16T08:21:06.345Z,45.85
2022-10-16T08:23:34.340Z,44.90
2022-10-16T08:26:07.851Z,45.60
2022-10-16T08:28:35.848Z,40.95
2022-10-16T08:31:14.856Z,48.05
2022-10-16T08:33:44.606Z,48.58
2022-10-16T08:36:12.529Z,44.22
2022-10-16T08:38:40.342Z,39.97
2022-10-16T08:41:45.151Z,45.92
2022-10-16T08:44:18.051Z,42.38
2022-10-16T08:47:23.927Z,42.67
2022-10-16T08:50:09.690Z,43.42
2022-10-16T08:52:41.653Z,40.70
2022-10-16T08:57:45.420Z,36.00
2022-10-16T09:00:16.356Z,37.53
2022-10-16T09:02:54.009Z,40.88
2022-10-16T09:05:27.010Z,43.80
2022-10-16T09:08:33.002Z,41.95
2022-10-16T09:11:40.726Z,35.72
2022-10-16T09:14:16.028Z,35.53
2022-10-16T09:16:53.319Z,36.28
2022-10-16T09:19:59.844Z,34.70
2022-10-16T09:22:30.206Z,35.08
2022-10-16T09:25:01.960Z,36.13
2022-10-16T09:27:29.530Z,37.97
2022-10-16T09:29:59.671Z,37.35
2022-10-16T09:32:29.250Z,42.15
2022-10-16T09:34:58.498Z,36.25
2022-10-16T09:37:27.238Z,36.80
2022-10-16T09:39:55.735Z,33.78
2022-10-16T09:42:33.963Z,38.00
2022-10-16T09:45:02.015Z,31.58
2022-10-16T09:47:31.468Z,34.70
2022-10-16T09:50:03.136Z,33.25
2022-10-16T09:52:31.326Z,34.85
2022-10-16T09:55:13.607Z,35.55
2022-10-16T09:57:54.284Z,36.92
2022-10-16T10:00:23.633Z,32.15
2022-10-16T10:02:51.890Z,31.30
2022-10-16T10:05:24.407Z,34.45
2022-10-16T10:07:58.601Z,30.80
2022-10-16T10:10:30.152Z,38.50
2022-10-16T10:12:58.160Z,35.80
2022-10-16T10:15:28.962Z,32.30
2022-10-16T10:17:58.278Z,37.95
2022-10-16T10:20:29.790Z,30.92
2022-10-16T10:22:57.669Z,32.15
2022-10-16T10:25:28.114Z,32.92
2022-10-16T10:28:26.356Z,30.63
2022-10-16T10:31:02.940Z,35.17
2022-10-16T10:34:11.896Z,32.50
2022-10-16T10:36:41.987Z,31.67
2022-10-16T10:39:18.071Z,31.90
2022-10-16T10:42:07.756Z,32.78
2022-10-16T10:45:05.573Z,29.48
2022-10-16T10:47:49.817Z,31.50
2022-10-16T10:50:41.518Z,34.45
2022-10-16T10:55:55.314Z,30.60
2022-10-16T10:58:51.818Z,28.25
2022-10-16T11:01:49.605Z,31.33
2022-10-16T11:04:20.087Z,29.13
2022-10-16T11:06:53.449Z,26.20
2022-10-16T11:09:38.093Z,29.60
2022-10-16T11:12:21.256Z,26.58
2022-10-16T11:14:57.762Z,30.15
2022-10-16T11:17:31.847Z,28.55
2022-10-16T11:20:14.563Z,24.73
2022-10-16T11:23:20.172Z,28.25
2022-10-16T11:25:49.342Z,26.10
2022-10-16T11:28:30.903Z,29.67
2022-10-16T11:31:01.548Z,25.80
2022-10-16T11:33:54.946Z,22.98
2022-10-16T11:36:38.648Z,23.02
2022-10-16T11:39:20.920Z,24.50
2022-10-16T11:41:54.495Z,21.42
2022-10-16T11:44:28.601Z,23.20
2022-10-16T11:47:33.937Z,21.35
2022-10-16T11:52:41.960Z,25.48
2022-10-16T11:55:09.222Z,21.67
2022-10-16T11:57:50.543Z,22.05
2022-10-16T12:00:20.511Z,22.77
2022-10-16T12:03:00.103Z,18.27
2022-10-16T12:05:57.970Z,20.38
2022-10-16T12:08:26.184Z,16.70
2022-10-16T12:10:53.832Z,19.38
2022-10-16T12:13:33.359Z,16.23
2022-10-16T12:16:06.628Z,17.77
2022-10-16T12:18:34.375Z,17.65
2022-10-16T12:21:08.573Z,14.48
2022-10-16T12:23:53.943Z,15.88
2022-10-16T12:26:33.547Z,17.33
2022-10-16T12:29:31.093Z,14.02
2022-10-16T12:31:58.759Z,12.57
2022-10-16T12:34:37.487Z,14.32
2022-10-16T12:37:15.878Z,11.68
2022-10-16T12:39:43.504Z,11.75
2022-10-16T12:42:34.511Z,10.02
2022-10-16T12:45:02.963Z,10.70
2022-10-16T12:47:33.241Z,11.18
2022-10-16T12:50:04.140Z,10.95
2022-10-16T12:52:39.485Z,10.63
2022-10-16T12:55:17.627Z,10.77
2022-10-16T12:58:23.363Z,11.38
2022-10-16T13:01:13.329Z,8.98
2022-10-16T13:03:53.753Z,9.30
2022-10-16T13:06:39.970Z,10.38
2022-10-16T13:09:44.717Z,6.93
2022-10-16T13:12:35.848Z,8.10
2022-10-16T13:15:18.377Z,8.00
2022-10-16T13:18:07.961Z,6.50
2022-10-16T13:20:43.309Z,6.28
2022-10-16T13:23:28.075Z,7.38
2022-10-16T13:26:32.620Z,6.47
2022-10-16T13:29:02.527Z,6.70
2022-10-16T13:31:31.013Z,7.10
2022-10-16T13:34:00.920Z,7.75
2022-10-16T13:36:31.364Z,6.13
2022-10-16T13:39:12.684Z,6.43
2022-10-16T13:41:40.058Z,7.68
2022-10-16T13:44:19.529Z,10.43
2022-10-16T13:46:47.300Z,7.82
2022-10-16T13:49:18.953Z,7.22
2022-10-16T13:52:00.749Z,5.88
2022-10-16T13:54:32.587Z,6.82
2022-10-16T13:57:15.673Z,6.03
2022-10-16T13:59:50.388Z,8.05
2022-10-16T14:02:26.843Z,8.73
2022-10-16T14:04:55.541Z,6.70
2022-10-16T14:07:29.986Z,8.18
2022-10-16T14:10:07.941Z,7.32
2022-10-16T14:12:36.008Z,6.53
2022-10-16T14:15:03.804Z,7.50
2022-10-16T14:17:34.438Z,7.88
2022-10-16T14:20:07.129Z,6.90
2022-10-16T14:22:39.056Z,8.43
2022-10-16T14:25:22.084Z,6.85
2022-10-16T14:28:04.827Z,10.07
2022-10-16T14:30:35.879Z,9.57
2022-10-16T14:33:20.996Z,8.90
2022-10-16T14:36:06.944Z,9.35
2022-10-16T14:38:34.698Z,9.13
2022-10-16T14:41:02.747Z,13.48
2022-10-16T14:43:36.806Z,7.53
2022-10-16T14:46:14.927Z,9.02
2022-10-16T14:48:44.317Z,9.70
2022-10-16T14:51:16.312Z,7.47
2022-10-16T14:53:43.583Z,7.95
2022-10-16T14:56:23.654Z,9.15
2022-10-16T14:58:52.151Z,8.55
2022-10-16T15:01:20.424Z,8.98
2022-10-16T15:03:48.001Z,8.27
2022-10-16T15:06:16.857Z,10.30
2022-10-16T15:08:44.552Z,11.60
2022-10-16T15:11:17.782Z,11.18
2022-10-16T15:13:45.125Z,10.65
2022-10-16T15:16:14.541Z,11.43
2022-10-16T15:18:42.440Z,12.65
2022-10-16T15:21:23.586Z,12.27
2022-10-16T15:23:51.796Z,11.57
2022-10-16T15:26:19.325Z,13.43
2022-10-16T15:28:46.697Z,13.30
2022-10-16T15:31:14.382Z,13.73
2022-10-16T15:33:41.704Z,14.45
2022-10-16T15:36:09.375Z,11.55
2022-10-16T15:38:36.734Z,12.20
2022-10-16T15:41:04.221Z,13.05
2022-10-16T15:43:31.444Z,15.50
2022-10-16T15:46:07.433Z,16.48
2022-10-16T15:48:34.834Z,13.35
2022-10-16T15:51:06.454Z,13.43
2022-10-16T15:53:35.044Z,13.88
2022-10-16T15:56:04.341Z,13.05
2022-10-16T15:58:31.590Z,13.40
2022-10-16T16:01:04.534Z,13.60
2022-10-16T16:03:32.597Z,16.63
2022-10-16T16:06:05.112Z,14.40
2022-10-16T16:08:33.620Z,16.13
2022-10-16T16:11:03.547Z,14.68
2022-10-16T16:13:30.811Z,14.30
2022-10-16T16:15:58.333Z,16.55
2022-10-16T16:18:26.137Z,15.00
2022-10-16T16:20:54.300Z,13.52
2022-10-16T16:23:21.626Z,13.35
2022-10-16T16:26:12.425Z,16.60
2022-10-16T16:28:41.556Z,14.45
2022-10-16T16:31:09.648Z,16.20
2022-10-16T16:33:36.879Z,15.20
2022-10-16T16:36:11.613Z,14.27
2022-10-16T16:38:41.982Z,15.50
2022-10-16T16:41:20.745Z,12.18
2022-10-16T16:43:54.408Z,12.15
2022-10-16T16:46:23.515Z,14.77
2022-10-16T16:48:51.498Z,12.60
2022-10-16T16:51:20.804Z,12.10
2022-10-16T16:53:50.525Z,19.25
2022-10-16T16:56:19.121Z,14.27
2022-10-16T16:58:47.615Z,15.90
2022-10-16T17:01:20.384Z,15.48
2022-10-16T17:03:53.215Z,16.17
2022-10-16T17:06:22.344Z,14.85
2022-10-16T17:08:50.607Z,18.27
2022-10-16T17:11:21.460Z,12.73
2022-10-16T17:13:52.472Z,16.40
2022-10-16T17:16:28.356Z,17.50
2022-10-16T17:18:55.632Z,16.58
2022-10-16T17:21:23.336Z,14.45
2022-10-16T17:23:53.375Z,14.32
2022-10-16T17:26:21.082Z,16.85
2022-10-16T17:28:52.401Z,14.77
2022-10-16T17:31:24.329Z,19.73
2022-10-16T17:36:20.783Z,18.23
2022-10-16T17:38:48.542Z,16.20
2022-10-16T17:41:15.907Z,18.48
2022-10-16T17:43:43.147Z,17.63
2022-10-16T17:46:12.168Z,13.40
2022-10-16T17:48:44.199Z,15.27
2022-10-16T17:51:18.833Z,15.90
2022-10-16T17:53:54.689Z,14.27
2022-10-16T17:56:23.361Z,16.65
2022-10-16T17:58:52.706Z,13.82
2022-10-16T18:01:26.170Z,12.70
2022-10-16T18:03:56.174Z,15.15
2022-10-16T18:06:24.176Z,12.70
2022-10-16T18:08:53.041Z,12.32
2022-10-16T18:11:21.211Z,13.70
2022-10-16T18:13:48.854Z,16.48
2022-10-16T18:16:16.429Z,16.05
2022-10-16T18:18:47.207Z,16.40
2022-10-16T18:21:17.230Z,13.93
2022-10-16T18:23:50.803Z,15.00
2022-10-16T18:26:20.766Z,15.93
2022-10-16T18:28:48.422Z,15.48
2022-10-16T18:31:17.703Z,16.08
2022-10-16T18:33:50.715Z,15.82
2022-10-16T18:36:21.611Z,18.50
2022-10-16T18:38:49.444Z,15.77
2022-10-16T18:41:17.153Z,16.75
2022-10-16T18:43:44.455Z,17.92
2022-10-16T18:46:15.497Z,17.77
2022-10-16T18:48:42.975Z,16.17
2022-10-16T18:51:20.399Z,16.85
2022-10-16T18:53:50.337Z,16.10
2022-10-16T18:56:20.003Z,16.83
2022-10-16T18:58:51.027Z,15.23
2022-10-16T19:01:21.814Z,14.45
2022-10-16T19:03:53.445Z,17.05
2022-10-16T19:06:21.377Z,16.10
2022-10-16T19:08:48.607Z,15.77
2022-10-16T19:11:18.776Z,16.20
2022-10-16T19:13:50.173Z,15.95
2022-10-16T19:16:23.901Z,17.40
2022-10-16T19:18:54.353Z,15.82
2022-10-16T19:21:22.884Z,15.95
2022-10-16T19:23:54.742Z,14.32
2022-10-16T19:26:23.566Z,15.35
2022-10-16T19:28:51.968Z,15.13
2022-10-16T19:31:22.692Z,13.98
2022-10-16T19:33:54.614Z,16.48
2022-10-16T19:36:25.336Z,12.60
2022-10-16T19:39:00.795Z,16.58
2022-10-16T19:41:29.264Z,14.80
2022-10-16T19:43:56.525Z,14.75
2022-10-16T19:46:25.615Z,15.60
2022-10-16T19:49:01.165Z,13.88
2022-10-16T19:51:29.662Z,13.10
2022-10-16T19:54:01.887Z,12.32
2022-10-16T19:56:30.953Z,14.23
2022-10-16T19:58:59.238Z,13.48
2022-10-16T20:01:30.450Z,14.57
2022-10-16T20:03:58.785Z,11.10
2022-10-16T20:06:27.065Z,13.30
2022-10-16T20:08:55.488Z,17.10
2022-10-16T20:11:28.534Z,12.40
2022-10-16T20:13:56.374Z,13.77
2022-10-16T20:16:24.685Z,11.30
2022-10-16T20:18:53.242Z,14.40
2022-10-16T20:21:26.083Z,12.38
2022-10-16T20:23:53.700Z,12.27
2022-10-16T20:26:24.101Z,11.80
2022-10-16T20:28:52.435Z,14.73
2022-10-16T20:31:25.931Z,12.90
2022-10-16T20:33:55.009Z,10.38
2022-10-16T20:36:24.300Z,12.55
2022-10-16T20:38:52.376Z,11.32
2022-10-16T20:41:20.416Z,9.68
2022-10-16T20:43:50.238Z,11.77
2022-10-16T20:46:20.933Z,9.45
2022-10-16T20:48:48.356Z,8.80
2022-10-16T20:51:19.992Z,9.05
2022-10-16T20:53:48.776Z,9.65
2022-10-16T20:56:17.527Z,13.63
2022-10-16T20:58:46.033Z,10.85
2022-10-16T21:01:16.298Z,8.20
2022-10-16T21:03:45.032Z,11.10
2022-10-16T21:06:15.457Z,11.05
2022-10-16T21:08:43.751Z,9.80
2022-10-16T21:11:16.070Z,9.98
2022-10-16T21:13:43.659Z,8.32
2022-10-16T21:16:12.580Z,11.27
2022-10-16T21:18:44.266Z,10.55
2022-10-16T21:21:23.626Z,8.32
2022-10-16T21:23:51.880Z,7.68
2022-10-16T21:26:26.070Z,9.55
2022-10-16T21:29:01.642Z,8.85
2022-10-16T21:31:29.922Z,7.75
2022-10-16T21:33:57.649Z,8.77
2022-10-16T21:36:27.974Z,7.32
2022-10-16T21:38:55.907Z,7.22
2022-10-16T21:41:28.306Z,7.25
2022-10-16T21:43:57.006Z,10.10
2022-10-16T21:46:26.851Z,6.32
2022-10-16T21:48:58.646Z,9.52
2022-10-16T21:51:28.005Z,7.53
2022-10-16T21:53:55.860Z,6.35
2022-10-16T21:56:23.588Z,7.03
2022-10-16T21:58:50.922Z,6.35
2022-10-16T22:01:20.820Z,7.20
2022-10-16T22:03:48.643Z,5.40
2022-10-16T22:06:17.832Z,7.35
2022-10-16T22:08:46.849Z,6.60
2022-10-16T22:11:21.581Z,6.53
2022-10-16T22:13:54.273Z,6.63
2022-10-16T22:16:26.491Z,7.65
2022-10-16T22:18:55.610Z,14.02
2022-10-16T22:21:23.875Z,8.48
2022-10-16T22:23:51.726Z,6.93
2022-10-16T22:26:19.399Z,7.85
2022-10-16T22:28:46.617Z,6.72
2022-10-16T22:31:15.239Z,7.30
2022-10-16T22:33:44.026Z,5.50
2022-10-16T22:36:14.015Z,13.45
2022-10-16T22:38:41.525Z,7.70
2022-10-16T22:41:11.617Z,9.50
2022-10-16T22:43:44.525Z,10.25
2022-10-16T22:46:17.652Z,7.32
2022-10-16T22:48:45.227Z,6.25
2022-10-16T22:51:19.581Z,7.43
2022-10-16T22:53:48.441Z,7.15
2022-10-16T22:56:17.608Z,7.47
2022-10-16T22:58:45.132Z,6.65
2022-10-16T23:01:35.551Z,9.10
2022-10-16T23:04:03.282Z,7.40
2022-10-16T23:06:30.696Z,7.82
2022-10-16T23:09:00.558Z,7.82
2022-10-16T23:11:29.695Z,9.25
2022-10-16T23:13:57.653Z,7.75
2022-10-16T23:16:25.843Z,8.20
2022-10-16T23:18:53.351Z,9.07
2022-10-16T23:21:23.839Z,6.82
2022-10-16T23:23:52.497Z,6.90
2022-10-16T23:26:22.855Z,8.82
2022-10-16T23:28:50.408Z,7.05
2022-10-16T23:31:18.931Z,13.68
2022-10-16T23:33:48.273Z,11.82
2022-10-16T23:36:21.002Z,7.93
2022-10-16T23:38:49.825Z,6.10
2022-10-16T23:41:18.689Z,7.28
2022-10-16T23:43:46.356Z,8.32
2022-10-16T23:46:15.102Z,5.38
2022-10-16T23:48:42.662Z,6.97
2022-10-16T23:51:10.343Z,7.38
2022-10-16T23:53:37.787Z,7.30
2022-10-16T23:56:05.603Z,8.60
2022-10-16T23:58:32.755Z,7.47
